createdAt,value
2019-03-29T00:00:03.241Z,99632.98
2019-03-29T00:01:11.035Z,99633.02
2019-03-29T00:02:14.240Z,99638.70
2019-03-29T00:03:17.055Z,99642.92
2019-03-29T00:04:20.402Z,99635.86
2019-03-29T00:05:23.225Z,99641.11
2019-03-29T00:06:29.125Z,99641.11
2019-03-29T00:07:39.830Z,99638.61
2019-03-29T00:08:38.773Z,99638.58
2019-03-29T00:09:41.673Z,99640.66
2019-03-29T00:10:44.544Z,99641.63
2019-03-29T00:11:48.639Z,99640.14
2019-03-29T00:12:51.836Z,99641.84
2019-03-29T00:13:58.353Z,99640.58
2019-03-29T00:15:01.309Z,99640.58
2019-03-29T00:16:04.222Z,99640.45
2019-03-29T00:17:07.081Z,99645.59
2019-03-29T00:18:10.339Z,99645.59
2019-03-29T00:19:13.265Z,99642.34
2019-03-29T00:20:16.094Z,99645.08
2019-03-29T00:21:20.333Z,99651.36
2019-03-29T00:22:23.180Z,99647.91
2019-03-29T00:23:26.028Z,99647.91
2019-03-29T00:24:29.221Z,99644.97
2019-03-29T00:25:33.061Z,99647.41
2019-03-29T00:26:36.006Z,99643.30
2019-03-29T00:27:42.674Z,99642.23
2019-03-29T00:28:45.460Z,99643.10
2019-03-29T00:29:48.754Z,99645.74
2019-03-29T00:30:55.752Z,99638.59
2019-03-29T00:32:01.532Z,99639.62
2019-03-29T00:33:04.743Z,99639.62
2019-03-29T00:34:09.722Z,99636.61
2019-03-29T00:35:12.600Z,99638.09
2019-03-29T00:36:16.031Z,99638.09
2019-03-29T00:37:18.876Z,99636.10
2019-03-29T00:38:22.348Z,99636.10
2019-03-29T00:39:26.371Z,99631.90
2019-03-29T00:40:29.197Z,99631.90
2019-03-29T00:41:32.111Z,99639.73
2019-03-29T00:42:35.491Z,99639.73
2019-03-29T00:43:38.299Z,99631.34
2019-03-29T00:44:41.125Z,99634.55
2019-03-29T00:45:45.190Z,99634.55
2019-03-29T00:46:49.041Z,99622.73
2019-03-29T00:47:52.203Z,99622.73
2019-03-29T00:48:55.508Z,99626.69
2019-03-29T00:49:58.722Z,99620.27
2019-03-29T00:51:01.528Z,99619.97
2019-03-29T00:52:04.413Z,99624.27
2019-03-29T00:53:07.249Z,99624.27
2019-03-29T00:54:11.159Z,99614.98
2019-03-29T00:55:15.955Z,99621.80
2019-03-29T00:56:18.787Z,99624.46
2019-03-29T00:57:21.683Z,99622.31
2019-03-29T00:58:26.078Z,99624.41
2019-03-29T00:59:29.006Z,99621.87
2019-03-29T01:00:33.510Z,99618.34
2019-03-29T01:01:36.994Z,99618.34
2019-03-29T01:02:39.859Z,99620.21
2019-03-29T01:03:43.180Z,99616.94
2019-03-29T01:04:46.019Z,99613.81
2019-03-29T01:05:49.274Z,99614.72
2019-03-29T01:06:52.107Z,99612.95
2019-03-29T01:08:07.047Z,99612.50
2019-03-29T01:09:00.129Z,99612.50
2019-03-29T01:10:03.098Z,99611.22
2019-03-29T01:11:06.130Z,99612.59
2019-03-29T01:12:09.471Z,99612.59
2019-03-29T01:13:12.287Z,99610.96
2019-03-29T01:14:17.828Z,99602.00
2019-03-29T01:15:23.175Z,99601.46
2019-03-29T01:16:26.008Z,99609.09
2019-03-29T01:17:28.889Z,99603.70
2019-03-29T01:18:34.200Z,99603.16
2019-03-29T01:19:37.120Z,99603.16
2019-03-29T01:20:40.486Z,99605.34
2019-03-29T01:21:43.427Z,99607.20
2019-03-29T01:22:46.259Z,99610.19
2019-03-29T01:23:51.519Z,99607.78
2019-03-29T01:24:54.424Z,99607.78
2019-03-29T01:25:57.232Z,99602.90
2019-03-29T01:27:00.653Z,99603.80
2019-03-29T01:28:03.496Z,99597.45
2019-03-29T01:29:06.306Z,99597.48
2019-03-29T01:30:09.264Z,99601.94
2019-03-29T01:31:12.148Z,99604.92
2019-03-29T01:32:14.966Z,99604.92
2019-03-29T01:33:18.280Z,99609.42
2019-03-29T01:34:21.583Z,99600.47
2019-03-29T01:35:24.952Z,99605.41
2019-03-29T01:36:28.272Z,99598.22
2019-03-29T01:37:31.288Z,99609.84
2019-03-29T01:38:34.182Z,99595.48
2019-03-29T01:39:37.911Z,99602.39
2019-03-29T01:40:41.210Z,99602.39
2019-03-29T01:41:44.483Z,99602.27
2019-03-29T01:42:49.287Z,99602.27
2019-03-29T01:44:09.389Z,99606.75
2019-03-29T01:45:14.174Z,99595.81
2019-03-29T01:46:25.223Z,99595.81
2019-03-29T01:47:32.103Z,99599.11
2019-03-29T01:48:34.989Z,99602.02
2019-03-29T01:49:41.876Z,99596.49
2019-03-29T01:50:47.087Z,99596.49
2019-03-29T01:51:49.591Z,99596.53
2019-03-29T01:52:53.694Z,99601.08
2019-03-29T01:53:56.507Z,99592.59
2019-03-29T01:54:59.721Z,99592.59
2019-03-29T01:56:02.587Z,99594.80
2019-03-29T01:57:05.437Z,99597.67
2019-03-29T01:58:09.202Z,99589.09
2019-03-29T01:59:12.475Z,99585.84
2019-03-29T02:00:15.666Z,99591.19
2019-03-29T02:01:21.562Z,99586.27
2019-03-29T02:02:27.606Z,99584.42
2019-03-29T02:03:30.440Z,99584.42
2019-03-29T02:04:42.976Z,99587.41
2019-03-29T02:05:46.888Z,99584.75
2019-03-29T02:06:49.752Z,99585.01
2019-03-29T02:07:52.573Z,99580.38
2019-03-29T02:08:55.776Z,99582.06
2019-03-29T02:09:59.092Z,99582.06
2019-03-29T02:11:02.690Z,99586.94
2019-03-29T02:12:07.364Z,99582.73
2019-03-29T02:13:10.255Z,99584.80
2019-03-29T02:14:13.098Z,99579.69
2019-03-29T02:15:20.159Z,99583.68
2019-03-29T02:16:23.472Z,99583.68
2019-03-29T02:17:26.640Z,99580.56
2019-03-29T02:18:29.448Z,99582.20
2019-03-29T02:19:32.317Z,99583.55
2019-03-29T02:20:35.155Z,99571.27
2019-03-29T02:21:38.069Z,99571.27
2019-03-29T02:22:40.891Z,99580.77
2019-03-29T02:23:44.071Z,99577.48
2019-03-29T02:24:46.957Z,99583.72
2019-03-29T02:25:49.776Z,99583.72
2019-03-29T02:26:52.597Z,99574.55
2019-03-29T02:27:55.436Z,99574.55
2019-03-29T02:28:58.265Z,99573.16
2019-03-29T02:30:04.571Z,99573.16
2019-03-29T02:31:07.997Z,99570.64
2019-03-29T02:32:10.968Z,99568.98
2019-03-29T02:33:13.805Z,99568.98
2019-03-29T02:34:16.608Z,99560.17
2019-03-29T02:35:19.511Z,99564.30
2019-03-29T02:36:28.749Z,99564.30
2019-03-29T02:37:32.017Z,99554.16
2019-03-29T02:38:53.510Z,99555.80
2019-03-29T02:39:39.289Z,99555.92
2019-03-29T02:40:44.894Z,99551.72
2019-03-29T02:41:47.685Z,99550.45
2019-03-29T02:42:51.035Z,99540.86
2019-03-29T02:43:56.993Z,99545.23
2019-03-29T02:44:59.917Z,99545.23
2019-03-29T02:46:02.767Z,99544.01
2019-03-29T02:47:05.611Z,99544.69
2019-03-29T02:48:08.418Z,99541.33
2019-03-29T02:49:12.737Z,99539.27
2019-03-29T02:50:16.030Z,99539.23
2019-03-29T02:51:18.808Z,99538.94
2019-03-29T02:52:21.644Z,99538.94
2019-03-29T02:53:24.825Z,99537.59
2019-03-29T02:54:28.092Z,99537.05
2019-03-29T02:55:31.422Z,99537.05
2019-03-29T02:56:34.734Z,99532.05
2019-03-29T02:57:38.736Z,99539.69
2019-03-29T02:58:41.502Z,99538.17
2019-03-29T02:59:44.327Z,99537.13
2019-03-29T03:00:48.286Z,99539.81
2019-03-29T03:01:53.971Z,99540.41
2019-03-29T03:02:57.298Z,99542.30
2019-03-29T03:04:00.123Z,99542.30
2019-03-29T03:05:03.340Z,99539.09
2019-03-29T03:06:06.240Z,99533.54
2019-03-29T03:07:09.128Z,99533.54
2019-03-29T03:08:14.481Z,99536.19
2019-03-29T03:09:17.316Z,99536.68
2019-03-29T03:10:20.114Z,99542.42
2019-03-29T03:11:22.984Z,99535.24
2019-03-29T03:12:25.774Z,99536.56
2019-03-29T03:13:28.649Z,99534.34
2019-03-29T03:14:31.914Z,99532.00
2019-03-29T03:15:34.813Z,99531.41
2019-03-29T03:16:38.248Z,99526.45
2019-03-29T03:17:41.118Z,99526.45
2019-03-29T03:18:44.393Z,99525.02
2019-03-29T03:19:47.265Z,99530.11
2019-03-29T03:20:50.677Z,99530.11
2019-03-29T03:21:54.140Z,99539.73
2019-03-29T03:22:57.339Z,99539.73
2019-03-29T03:24:00.208Z,99530.78
2019-03-29T03:25:03.532Z,99538.00
2019-03-29T03:26:06.836Z,99535.11
2019-03-29T03:27:09.947Z,99534.05
2019-03-29T03:28:12.735Z,99527.13
2019-03-29T03:29:15.587Z,99533.64
2019-03-29T03:30:18.397Z,99528.09
2019-03-29T03:31:22.192Z,99537.04
2019-03-29T03:32:25.091Z,99526.02
2019-03-29T03:33:28.228Z,99525.73
2019-03-29T03:34:31.041Z,99528.75
2019-03-29T03:35:33.903Z,99527.70
2019-03-29T03:36:36.707Z,99514.71
2019-03-29T03:37:39.658Z,99523.08
2019-03-29T03:38:42.461Z,99523.08
2019-03-29T03:39:45.827Z,99523.12
2019-03-29T03:40:48.635Z,99517.19
2019-03-29T03:41:51.512Z,99527.83
2019-03-29T03:42:54.389Z,99527.83
2019-03-29T03:43:57.198Z,99519.67
2019-03-29T03:45:02.219Z,99525.98
2019-03-29T03:46:05.038Z,99525.90
2019-03-29T03:47:07.861Z,99522.83
2019-03-29T03:48:10.769Z,99524.86
2019-03-29T03:49:13.602Z,99523.34
2019-03-29T03:50:16.423Z,99521.91
2019-03-29T03:51:19.221Z,99520.52
2019-03-29T03:52:22.484Z,99522.04
2019-03-29T03:53:25.383Z,99522.04
2019-03-29T03:54:28.235Z,99528.38
2019-03-29T03:55:31.103Z,99528.59
2019-03-29T03:56:34.214Z,99520.14
2019-03-29T03:57:37.057Z,99520.14
2019-03-29T03:58:40.406Z,99524.91
2019-03-29T03:59:43.582Z,99527.73
2019-03-29T04:00:47.008Z,99529.73
2019-03-29T04:01:49.886Z,99531.32
2019-03-29T04:02:52.684Z,99523.25
2019-03-29T04:03:57.132Z,99529.47
2019-03-29T04:05:00.891Z,99531.37
2019-03-29T04:06:04.167Z,99526.82
2019-03-29T04:07:06.984Z,99530.81
2019-03-29T04:08:09.789Z,99529.27
2019-03-29T04:09:13.100Z,99529.27
2019-03-29T04:10:15.879Z,99519.55
2019-03-29T04:11:20.025Z,99528.92
2019-03-29T04:12:22.830Z,99518.88
2019-03-29T04:13:26.068Z,99522.95
2019-03-29T04:14:28.876Z,99526.82
2019-03-29T04:15:31.740Z,99526.82
2019-03-29T04:16:34.808Z,99526.61
2019-03-29T04:17:38.647Z,99519.80
2019-03-29T04:18:41.522Z,99518.75
2019-03-29T04:19:44.350Z,99519.80
2019-03-29T04:20:47.151Z,99521.98
2019-03-29T04:21:49.965Z,99522.23
2019-03-29T04:22:52.759Z,99522.78
2019-03-29T04:23:56.299Z,99524.96
2019-03-29T04:24:59.150Z,99527.16
2019-03-29T04:26:02.471Z,99524.80
2019-03-29T04:27:05.842Z,99524.80
2019-03-29T04:28:08.698Z,99530.56
2019-03-29T04:29:11.583Z,99524.05
2019-03-29T04:30:14.840Z,99529.47
2019-03-29T04:31:17.676Z,99529.47
2019-03-29T04:32:20.483Z,99528.38
2019-03-29T04:33:23.313Z,99523.55
2019-03-29T04:34:26.725Z,99532.06
2019-03-29T04:35:29.691Z,99525.42
2019-03-29T04:36:35.772Z,99529.70
2019-03-29T04:37:39.071Z,99529.70
2019-03-29T04:38:41.952Z,99530.58
2019-03-29T04:39:44.809Z,99523.65
2019-03-29T04:40:47.581Z,99526.09
2019-03-29T04:41:50.785Z,99523.95
2019-03-29T04:42:53.917Z,99527.44
2019-03-29T04:43:57.204Z,99523.56
2019-03-29T04:45:00.139Z,99523.56
2019-03-29T04:46:03.271Z,99529.77
2019-03-29T04:47:06.098Z,99529.57
2019-03-29T04:48:08.922Z,99532.92
2019-03-29T04:49:12.277Z,99523.67
2019-03-29T04:50:15.130Z,99532.72
2019-03-29T04:51:17.917Z,99534.80
2019-03-29T04:52:20.723Z,99536.40
2019-03-29T04:53:23.535Z,99532.07
2019-03-29T04:54:27.997Z,99533.55
2019-03-29T04:55:31.367Z,99533.55
2019-03-29T04:56:34.194Z,99540.11
2019-03-29T04:57:36.970Z,99534.27
2019-03-29T04:58:40.271Z,99541.14
2019-03-29T04:59:43.074Z,99533.83
2019-03-29T05:00:46.282Z,99534.92
2019-03-29T05:01:49.582Z,99537.86
2019-03-29T05:02:52.842Z,99534.88
2019-03-29T05:03:55.710Z,99533.39
2019-03-29T05:04:58.556Z,99526.33
2019-03-29T05:06:03.535Z,99532.64
2019-03-29T05:07:06.384Z,99519.85
2019-03-29T05:08:11.546Z,99528.27
2019-03-29T05:09:14.329Z,99524.48
2019-03-29T05:10:21.400Z,99522.79
2019-03-29T05:11:22.458Z,99528.41
2019-03-29T05:12:25.277Z,99528.21
2019-03-29T05:13:28.199Z,99529.55
2019-03-29T05:14:31.354Z,99524.28
2019-03-29T05:15:34.232Z,99524.28
2019-03-29T05:16:37.034Z,99529.11
2019-03-29T05:17:39.852Z,99528.31
2019-03-29T05:18:43.171Z,99528.91
2019-03-29T05:19:46.113Z,99528.91
2019-03-29T05:20:49.251Z,99531.05
2019-03-29T05:21:52.112Z,99522.27
2019-03-29T05:22:54.953Z,99529.80
2019-03-29T05:23:58.154Z,99529.59
2019-03-29T05:25:01.012Z,99529.59
2019-03-29T05:26:04.218Z,99526.91
2019-03-29T05:27:07.303Z,99526.91
2019-03-29T05:28:18.964Z,99523.59
2019-03-29T05:29:21.759Z,99522.73
2019-03-29T05:30:24.692Z,99522.73
2019-03-29T05:31:27.474Z,99525.58
2019-03-29T05:32:30.290Z,99529.34
2019-03-29T05:33:33.383Z,99529.34
2019-03-29T05:34:36.225Z,99530.87
2019-03-29T05:35:39.086Z,99530.87
2019-03-29T05:36:42.400Z,99524.66
2019-03-29T05:37:45.253Z,99529.50
2019-03-29T05:38:48.063Z,99523.67
2019-03-29T05:39:51.214Z,99525.47
2019-03-29T05:40:54.058Z,99526.11
2019-03-29T05:41:56.926Z,99525.06
2019-03-29T05:42:59.828Z,99521.36
2019-03-29T05:44:02.657Z,99521.36
2019-03-29T05:45:05.497Z,99519.34
2019-03-29T05:46:08.612Z,99519.34
2019-03-29T05:47:11.553Z,99519.49
2019-03-29T05:48:16.518Z,99519.49
2019-03-29T05:49:19.333Z,99518.41
2019-03-29T05:50:22.164Z,99518.41
2019-03-29T05:51:25.025Z,99508.69
2019-03-29T05:52:28.199Z,99508.69
2019-03-29T05:53:31.103Z,99511.61
2019-03-29T05:54:35.941Z,99509.89
2019-03-29T05:55:38.728Z,99509.22
2019-03-29T05:56:41.563Z,99504.92
2019-03-29T05:57:45.900Z,99502.05
2019-03-29T05:58:48.976Z,99502.05
2019-03-29T05:59:52.166Z,99506.46
2019-03-29T06:00:55.413Z,99505.30
2019-03-29T06:01:58.344Z,99507.73
2019-03-29T06:03:01.214Z,99501.76
2019-03-29T06:04:04.005Z,99502.28
2019-03-29T06:05:07.132Z,99502.28
2019-03-29T06:06:09.974Z,99509.20
2019-03-29T06:07:12.897Z,99504.70
2019-03-29T06:08:16.085Z,99504.36
2019-03-29T06:09:18.895Z,99503.36
2019-03-29T06:10:21.855Z,99508.44
2019-03-29T06:11:24.965Z,99504.89
2019-03-29T06:12:27.945Z,99504.89
2019-03-29T06:13:30.852Z,99506.05
2019-03-29T06:14:33.694Z,99507.78
2019-03-29T06:15:36.536Z,99507.78
2019-03-29T06:16:39.810Z,99506.66
2019-03-29T06:17:49.491Z,99509.36
2019-03-29T06:18:50.526Z,99509.36
2019-03-29T06:19:53.402Z,99509.23
2019-03-29T06:20:56.191Z,99511.81
2019-03-29T06:21:58.997Z,99511.81
2019-03-29T06:23:01.918Z,99501.64
2019-03-29T06:24:06.873Z,99512.97
2019-03-29T06:25:09.696Z,99512.14
2019-03-29T06:26:12.484Z,99512.14
2019-03-29T06:27:15.318Z,99505.86
2019-03-29T06:28:18.664Z,99501.11
2019-03-29T06:29:21.609Z,99501.06
2019-03-29T06:44:00.785Z,99495.69
2019-03-29T06:45:03.674Z,99495.69
2019-03-29T06:46:08.058Z,99502.44
2019-03-29T06:47:11.039Z,99502.44
2019-03-29T06:48:16.092Z,99497.61
2019-03-29T06:49:18.926Z,99497.61
2019-03-29T06:50:21.756Z,99493.32
2019-03-29T06:51:29.922Z,99493.32
2019-03-29T06:52:33.231Z,99497.11
2019-03-29T06:53:36.180Z,99495.75
2019-03-29T06:54:41.352Z,99499.27
2019-03-29T06:55:44.187Z,99500.91
2019-03-29T06:56:49.273Z,99500.91
2019-03-29T06:57:52.186Z,99501.16
2019-03-29T06:58:55.052Z,99501.16
2019-03-29T06:59:58.091Z,99500.05
2019-03-29T07:01:01.845Z,99505.74
2019-03-29T07:02:04.739Z,99502.50
2019-03-29T07:03:07.562Z,99499.69
2019-03-29T07:04:10.404Z,99506.14
2019-03-29T07:05:13.395Z,99506.14
2019-03-29T07:06:16.565Z,99499.03
2019-03-29T07:07:19.720Z,99499.03
2019-03-29T07:08:22.515Z,99504.47
2019-03-29T07:09:25.719Z,99504.47
2019-03-29T07:10:29.642Z,99508.81
2019-03-29T07:11:32.449Z,99508.81
2019-03-29T07:12:35.665Z,99505.36
2019-03-29T07:13:41.763Z,99502.85
2019-03-29T07:14:47.111Z,99505.62
2019-03-29T07:15:49.964Z,99496.36
2019-03-29T07:16:52.789Z,99501.20
2019-03-29T07:17:56.660Z,99501.20
2019-03-29T07:18:59.479Z,99502.61
2019-03-29T07:20:02.510Z,99502.64
2019-03-29T07:21:20.945Z,99493.59
2019-03-29T07:22:13.408Z,99492.01
2019-03-29T07:23:16.505Z,99492.01
2019-03-29T07:24:19.395Z,99488.42
2019-03-29T07:25:22.688Z,99494.98
2019-03-29T07:26:25.590Z,99490.53
2019-03-29T07:27:28.432Z,99488.54
2019-03-29T07:28:31.273Z,99487.14
2019-03-29T07:29:34.565Z,99487.14
2019-03-29T07:30:37.468Z,99490.97
2019-03-29T07:31:40.591Z,99490.97
2019-03-29T07:32:43.416Z,99489.17
2019-03-29T07:33:46.283Z,99490.16
2019-03-29T07:34:50.491Z,99490.16
2019-03-29T07:35:53.292Z,99492.43
2019-03-29T07:36:56.195Z,99481.33
2019-03-29T07:37:59.336Z,99481.33
2019-03-29T07:39:02.572Z,99481.03
2019-03-29T07:40:08.527Z,99481.03
2019-03-29T07:41:14.175Z,99491.58
2019-03-29T07:42:17.132Z,99478.79
2019-03-29T07:43:19.967Z,99478.79
2019-03-29T07:44:22.806Z,99486.94
2019-03-29T07:45:25.649Z,99487.05
2019-03-29T07:46:30.375Z,99487.05
2019-03-29T07:47:33.317Z,99474.64
2019-03-29T07:48:36.142Z,99477.05
2019-03-29T07:49:39.414Z,99484.24
2019-03-29T07:50:42.974Z,99477.41
2019-03-29T07:51:49.200Z,99477.41
2019-03-29T07:52:52.350Z,99482.71
2019-03-29T07:53:58.574Z,99481.42
2019-03-29T07:56:24.420Z,99478.27
2019-03-29T07:57:30.288Z,99477.03
2019-03-29T07:58:35.807Z,99481.03
2019-03-29T07:59:38.651Z,99473.95
2019-03-29T08:00:41.722Z,99475.03
2019-03-29T08:01:46.495Z,99475.03
2019-03-29T08:02:49.821Z,99465.94
2019-03-29T08:03:55.282Z,99483.24
2019-03-29T08:04:58.501Z,99472.97
2019-03-29T08:06:01.742Z,99478.88
2019-03-29T08:07:06.142Z,99478.88
2019-03-29T08:08:23.338Z,99475.95
2019-03-29T08:09:22.409Z,99475.66
2019-03-29T08:10:27.463Z,99465.91
2019-03-29T08:11:26.483Z,99465.63
2019-03-29T08:12:29.730Z,99461.84
2019-03-29T08:13:33.289Z,99461.84
2019-03-29T08:14:36.458Z,99461.43
2019-03-29T08:15:39.868Z,99465.91
2019-03-29T08:16:42.729Z,99463.66
2019-03-29T08:17:45.574Z,99464.97
2019-03-29T08:18:51.662Z,99464.31
2019-03-29T08:20:18.945Z,99460.44
2019-03-29T08:21:01.342Z,99465.06
2019-03-29T08:22:04.256Z,99457.02
2019-03-29T08:23:09.884Z,99457.80
2019-03-29T08:24:12.847Z,99456.86
2019-03-29T08:25:15.720Z,99458.41
2019-03-29T08:26:18.691Z,99458.43
2019-03-29T08:27:22.211Z,99460.78
2019-03-29T08:28:25.050Z,99460.78
2019-03-29T08:29:31.641Z,99452.34
2019-03-29T08:30:34.922Z,99452.34
2019-03-29T08:31:39.998Z,99452.64
2019-03-29T08:32:42.587Z,99452.19
2019-03-29T08:33:46.035Z,99443.39
2019-03-29T08:34:49.014Z,99451.00
2019-03-29T08:35:51.852Z,99446.56
2019-03-29T08:36:54.759Z,99446.56
2019-03-29T08:37:57.750Z,99456.51
2019-03-29T08:39:00.730Z,99448.49
2019-03-29T08:40:04.052Z,99449.42
2019-03-29T08:41:06.936Z,99441.94
2019-03-29T08:42:09.872Z,99441.94
2019-03-29T08:43:12.790Z,99440.58
2019-03-29T08:44:15.595Z,99440.58
2019-03-29T08:45:18.417Z,99445.66
2019-03-29T08:46:24.910Z,99440.32
2019-03-29T08:47:27.851Z,99440.95
2019-03-29T08:48:30.821Z,99446.97
2019-03-29T08:49:33.818Z,99444.94
2019-03-29T08:50:37.022Z,99444.56
2019-03-29T08:51:41.442Z,99442.64
2019-03-29T08:52:45.752Z,99442.64
2019-03-29T08:53:51.393Z,99451.73
2019-03-29T08:54:54.762Z,99448.81
2019-03-29T08:56:04.821Z,99444.30
2019-03-29T08:57:10.482Z,99443.00
2019-03-29T08:58:15.527Z,99432.76
2019-03-29T08:59:19.386Z,99436.03
2019-03-29T09:00:22.188Z,99444.23
2019-03-29T09:01:25.198Z,99443.39
2019-03-29T09:02:28.017Z,99443.39
2019-03-29T09:03:30.986Z,99435.52
2019-03-29T09:04:34.273Z,99428.34
2019-03-29T09:05:42.350Z,99427.88
2019-03-29T09:06:53.458Z,99430.02
2019-03-29T09:07:53.846Z,99430.02
2019-03-29T09:08:56.681Z,99429.80
2019-03-29T09:10:01.428Z,99427.50
2019-03-29T09:11:07.797Z,99424.22
2019-03-29T09:12:14.743Z,99424.22
2019-03-29T09:14:53.161Z,99418.22
2019-03-29T09:15:57.934Z,99426.79
2019-03-29T09:17:00.883Z,99426.34
2019-03-29T09:18:03.666Z,99421.81
2019-03-29T09:19:09.920Z,99420.03
2019-03-29T09:20:12.804Z,99420.03
2019-03-29T09:21:18.069Z,99413.70
2019-03-29T09:22:20.938Z,99420.92
2019-03-29T09:23:23.806Z,99420.54
2019-03-29T09:24:26.788Z,99420.54
2019-03-29T09:25:32.837Z,99422.15
2019-03-29T09:26:35.775Z,99417.20
2019-03-29T09:27:40.563Z,99411.33
2019-03-29T09:28:43.732Z,99417.49
2019-03-29T09:29:46.624Z,99417.49
2019-03-29T09:30:49.544Z,99415.73
2019-03-29T09:31:52.669Z,99410.60
2019-03-29T09:32:56.098Z,99407.66
2019-03-29T09:33:58.912Z,99410.14
2019-03-29T09:35:02.228Z,99410.14
2019-03-29T09:36:05.558Z,99402.22
2019-03-29T09:37:08.447Z,99409.27
2019-03-29T09:38:14.523Z,99400.45
2019-03-29T09:39:20.026Z,99400.45
2019-03-29T09:40:22.904Z,99403.78
2019-03-29T09:41:29.753Z,99399.37
2019-03-29T09:42:32.763Z,99399.37
2019-03-29T09:43:35.725Z,99396.67
2019-03-29T09:44:41.592Z,99398.06
2019-03-29T09:45:44.441Z,99408.38
2019-03-29T09:46:47.522Z,99393.11
2019-03-29T09:47:50.808Z,99393.11
2019-03-29T09:48:57.620Z,99380.00
2019-03-29T09:50:03.545Z,99385.63
2019-03-29T09:51:12.081Z,99384.28
2019-03-29T09:52:14.970Z,99387.23
2019-03-29T09:53:17.800Z,99387.23
2019-03-29T09:54:22.432Z,99383.59
2019-03-29T09:55:25.803Z,99383.59
2019-03-29T09:56:38.802Z,99377.80
2019-03-29T09:57:38.136Z,99377.80
2019-03-29T09:58:44.902Z,99376.34
2019-03-29T09:59:46.390Z,99376.34
2019-03-29T10:00:49.350Z,99376.32
2019-03-29T10:01:54.043Z,99376.34
2019-03-29T10:03:03.457Z,99359.94
2019-03-29T10:04:09.063Z,99376.47
2019-03-29T10:05:13.551Z,99374.16
2019-03-29T10:06:16.388Z,99376.31
2019-03-29T10:07:22.211Z,99376.31
2019-03-29T10:08:26.457Z,99376.07
2019-03-29T10:09:32.191Z,99376.17
2019-03-29T10:10:37.070Z,99373.45
2019-03-29T10:11:39.807Z,99373.45
2019-03-29T10:12:44.104Z,99376.55
2019-03-29T10:13:50.526Z,99379.31
2019-03-29T10:14:53.429Z,99377.06
2019-03-29T10:15:56.633Z,99373.41
2019-03-29T10:16:59.581Z,99373.41
2019-03-29T10:18:02.487Z,99373.36
2019-03-29T10:19:05.335Z,99367.80
2019-03-29T10:20:09.235Z,99377.31
2019-03-29T10:21:16.978Z,99371.91
2019-03-29T10:22:23.048Z,99371.91
2019-03-29T10:25:18.592Z,99350.16
2019-03-29T10:26:10.913Z,99353.47
2019-03-29T10:27:13.881Z,99353.47
2019-03-29T10:28:17.276Z,99361.84
2019-03-29T10:29:21.380Z,99361.84
2019-03-29T10:30:24.392Z,99360.05
2019-03-29T10:31:32.370Z,99356.88
2019-03-29T10:32:31.769Z,99358.55
2019-03-29T10:33:34.982Z,99367.89
2019-03-29T10:34:38.768Z,99367.89
2019-03-29T10:35:51.483Z,99354.20
2019-03-29T10:36:47.233Z,99350.02
2019-03-29T10:37:52.784Z,99352.72
2019-03-29T10:38:58.143Z,99349.19
2019-03-29T10:40:00.624Z,99349.19
2019-03-29T10:41:03.425Z,99348.95
2019-03-29T10:42:08.650Z,99341.97
2019-03-29T10:43:11.524Z,99341.97
2019-03-29T10:44:17.269Z,99333.98
2019-03-29T10:45:20.200Z,99341.45
2019-03-29T10:46:23.606Z,99340.58
2019-03-29T10:47:42.545Z,99333.14
2019-03-29T10:48:32.105Z,99328.03
2019-03-29T10:49:35.289Z,99326.81
2019-03-29T10:50:38.356Z,99333.58
2019-03-29T10:51:41.055Z,99328.95
2019-03-29T10:52:44.187Z,99328.53
2019-03-29T10:53:50.618Z,99328.91
2019-03-29T10:54:55.074Z,99331.52
2019-03-29T10:55:58.963Z,99329.39
2019-03-29T10:57:06.700Z,99336.98
2019-03-29T10:58:10.630Z,99326.28
2019-03-29T10:59:26.706Z,99328.67
2019-03-29T11:00:21.712Z,99323.42
2019-03-29T11:01:24.971Z,99318.36
2019-03-29T11:42:51.552Z,99258.42
2019-03-29T11:43:55.501Z,99258.21
2019-03-29T11:45:06.258Z,99258.21
2019-03-29T11:46:09.658Z,99258.22
2019-03-29T11:47:12.470Z,99258.22
2019-03-29T11:48:15.763Z,99259.18
2019-03-29T11:49:19.104Z,99258.23
2019-03-29T11:50:21.994Z,99258.23
2019-03-29T11:51:26.161Z,99247.20
2019-03-29T11:52:29.226Z,99247.09
2019-03-29T11:53:32.391Z,99247.21
2019-03-29T11:54:35.628Z,99243.50
2019-03-29T11:55:40.227Z,99251.52
2019-03-29T11:56:43.062Z,99251.52
2019-03-29T11:57:50.656Z,99252.13
2019-03-29T11:58:53.600Z,99251.92
2019-03-29T11:59:56.514Z,99251.92
2019-03-29T12:00:59.923Z,99247.61
2019-03-29T12:02:03.109Z,99240.32
2019-03-29T12:03:09.095Z,99240.32
2019-03-29T12:04:10.619Z,99235.05
2019-03-29T12:05:17.271Z,99235.15
2019-03-29T12:06:20.238Z,99222.61
2019-03-29T12:07:25.345Z,99222.61
2019-03-29T12:08:28.209Z,99221.73
2019-03-29T12:09:31.262Z,99235.38
2019-03-29T12:10:34.127Z,99227.56
2019-03-29T12:11:41.110Z,99224.89
2019-03-29T12:12:43.938Z,99222.72
2019-03-29T12:13:47.399Z,99213.30
2019-03-29T12:14:50.293Z,99213.34
2019-03-29T12:15:55.923Z,99221.89
2019-03-29T12:17:04.330Z,99221.89
2019-03-29T12:18:06.974Z,99221.27
2019-03-29T12:19:12.292Z,99218.16
2019-03-29T12:20:16.090Z,99211.83
2019-03-29T12:21:18.974Z,99215.27
2019-03-29T12:22:22.265Z,99203.91
2019-03-29T12:23:32.638Z,99203.91
2019-03-29T12:24:35.522Z,99217.59
2019-03-29T12:25:38.353Z,99216.57
2019-03-29T12:26:41.732Z,99203.23
2019-03-29T12:27:46.839Z,99211.36
2019-03-29T12:28:49.550Z,99207.67
2019-03-29T12:29:52.258Z,99207.67
2019-03-29T12:30:55.074Z,99205.82
2019-03-29T12:31:59.380Z,99205.12
2019-03-29T12:33:02.716Z,99197.55
2019-03-29T12:34:09.353Z,99200.22
2019-03-29T12:35:12.445Z,99193.25
2019-03-29T12:36:15.153Z,99192.69
2019-03-29T12:37:17.982Z,99198.42
2019-03-29T12:38:20.802Z,99187.24
2019-03-29T12:39:24.439Z,99193.20
2019-03-29T12:40:28.559Z,99188.33
2019-03-29T12:41:31.469Z,99187.76
2019-03-29T12:42:34.164Z,99186.44
2019-03-29T12:43:36.883Z,99185.98
2019-03-29T12:44:39.539Z,99188.67
2019-03-29T12:45:42.659Z,99187.14
2019-03-29T12:46:46.248Z,99187.14
2019-03-29T12:47:49.149Z,99175.02
2019-03-29T12:48:51.930Z,99172.57
2019-03-29T12:49:57.613Z,99170.63
2019-03-29T12:51:00.343Z,99167.36
2019-03-29T12:52:03.733Z,99166.20
2019-03-29T12:53:08.343Z,99163.50
2019-03-29T12:54:12.434Z,99163.50
2019-03-29T12:55:17.563Z,99170.56
2019-03-29T12:56:29.632Z,99170.56
2019-03-29T12:57:32.837Z,99158.84
2019-03-29T12:58:39.509Z,99158.84
2019-03-29T12:59:42.977Z,99156.05
2019-03-29T13:00:51.383Z,99155.74
2019-03-29T13:01:54.913Z,99155.74
2019-03-29T13:02:57.708Z,99162.23
2019-03-29T13:04:01.371Z,99161.09
2019-03-29T13:05:08.475Z,99156.05
2019-03-29T13:06:14.992Z,99151.87
2019-03-29T13:07:17.707Z,99147.33
2019-03-29T13:08:22.076Z,99145.75
2019-03-29T13:09:24.762Z,99145.75
2019-03-29T13:10:36.001Z,99142.70
2019-03-29T13:11:42.049Z,99138.25
2019-03-29T13:12:46.761Z,99135.67
2019-03-29T13:13:51.730Z,99152.43
2019-03-29T13:14:57.252Z,99140.30
2019-03-29T13:15:59.913Z,99139.52
2019-03-29T13:17:03.852Z,99136.73
2019-03-29T13:18:07.563Z,99136.73
2019-03-29T13:19:10.474Z,99138.02
2019-03-29T13:20:13.186Z,99130.05
2019-03-29T13:21:15.967Z,99126.95
2019-03-29T13:22:19.307Z,99135.20
2019-03-29T13:23:22.317Z,99121.44
2019-03-29T13:24:24.977Z,99126.86
2019-03-29T13:25:27.761Z,99126.86
2019-03-29T13:26:32.626Z,99119.11